createdAt,value
2018-06-29T00:00:02.900Z,101548.97
2018-06-29T00:02:31.793Z,101545.60
2018-06-29T00:05:00.123Z,101541.63
2018-06-29T00:07:27.860Z,101539.56
2018-06-29T00:09:56.167Z,101539.38
2018-06-29T00:12:25.074Z,101532.59
2018-06-29T00:14:53.413Z,101533.71
2018-06-29T00:17:21.730Z,101535.75
2018-06-29T00:19:50.049Z,101537.60
2018-06-29T00:22:18.364Z,101533.80
2018-06-29T00:24:46.846Z,101529.49
2018-06-29T00:27:15.170Z,101523.26
2018-06-29T00:29:42.926Z,101526.30
2018-06-29T00:32:11.827Z,101515.48
2018-06-29T00:34:40.162Z,101515.33
2018-06-29T00:37:08.493Z,101516.27
2018-06-29T00:39:36.816Z,101513.37
2018-06-29T00:42:04.577Z,101510.70
2018-06-29T00:44:33.480Z,101509.05
2018-06-29T00:47:01.816Z,101507.50
2018-06-29T00:49:29.566Z,101509.00
2018-06-29T00:51:57.897Z,101507.66
2018-06-29T00:54:27.939Z,101506.36
2018-06-29T00:56:55.240Z,101499.30
2018-06-29T00:59:23.582Z,101497.38
2018-06-29T01:01:51.921Z,101500.97
2018-06-29T01:04:19.782Z,101491.41
2018-06-29T01:06:48.571Z,101484.70
2018-06-29T01:09:16.891Z,101483.06
2018-06-29T01:11:44.626Z,101483.48
2018-06-29T01:14:13.537Z,101479.48
2018-06-29T01:16:41.859Z,101474.20
2018-06-29T01:19:10.172Z,101466.11
2018-06-29T01:21:38.540Z,101470.84
2018-06-29T01:24:06.961Z,101463.78
2018-06-29T01:26:34.737Z,101460.97
2018-06-29T01:29:03.063Z,101461.73
2018-06-29T01:31:31.365Z,101464.19
2018-06-29T01:34:00.264Z,101461.98
2018-06-29T01:36:28.001Z,101455.53
2018-06-29T01:38:56.892Z,101455.69
2018-06-29T01:41:25.258Z,101451.97
2018-06-29T01:43:53.778Z,101446.86
2018-06-29T01:46:22.093Z,101445.56
2018-06-29T01:48:49.850Z,101446.19
2018-06-29T01:51:18.735Z,101440.44
2018-06-29T01:53:46.485Z,101434.54
2018-06-29T01:56:14.799Z,101433.56
2018-06-29T01:58:43.472Z,101430.02
2018-06-29T02:01:13.145Z,101423.92
2018-06-29T02:03:40.886Z,101417.44
2018-06-29T02:06:09.779Z,101413.59
2018-06-29T02:08:39.086Z,101409.59
2018-06-29T02:11:07.399Z,101403.15
2018-06-29T02:13:35.708Z,101396.70
2018-06-29T02:16:04.097Z,101392.56
2018-06-29T02:18:32.415Z,101392.22
2018-06-29T02:21:00.153Z,101405.97
2018-06-29T02:23:29.044Z,101407.91
2018-06-29T02:25:57.376Z,101403.52
2018-06-29T02:28:25.722Z,101396.19
2018-06-29T02:30:53.582Z,101395.70
2018-06-29T02:33:21.854Z,101390.22
2018-06-29T02:35:50.752Z,101386.27
2018-06-29T02:38:19.074Z,101381.08
2018-06-29T02:40:47.097Z,101379.01
2018-06-29T02:43:15.120Z,101373.70
2018-06-29T02:45:43.634Z,101367.70
2018-06-29T02:48:12.331Z,101374.48
2018-06-29T02:50:40.062Z,101364.30
2018-06-29T02:53:08.957Z,101365.44
2018-06-29T02:55:37.272Z,101362.58
2018-06-29T02:58:05.020Z,101358.39
2018-06-29T03:00:33.336Z,101352.75
2018-06-29T03:03:02.233Z,101353.58
2018-06-29T03:05:30.556Z,101350.02
2018-06-29T03:07:58.286Z,101342.78
2018-06-29T03:10:26.604Z,101336.83
2018-06-29T03:12:54.925Z,101333.55
2018-06-29T03:15:23.242Z,101336.73
2018-06-29T03:17:51.569Z,101333.25
2018-06-29T03:20:20.232Z,101334.91
2018-06-29T03:22:48.881Z,101330.58
2018-06-29T03:25:16.624Z,101320.52
2018-06-29T03:27:44.930Z,101318.95
2018-06-29T03:30:13.287Z,101314.83
2018-06-29T03:32:42.186Z,101312.34
2018-06-29T03:35:10.496Z,101313.84
2018-06-29T03:37:38.236Z,101312.16
2018-06-29T03:40:06.562Z,101311.48
2018-06-29T03:42:34.902Z,101308.22
2018-06-29T03:45:03.790Z,101312.25
2018-06-29T03:47:32.106Z,101306.34
2018-06-29T03:50:00.437Z,101306.83
2018-06-29T03:52:28.753Z,101301.19
2018-06-29T03:54:57.072Z,101298.45
2018-06-29T03:57:24.809Z,101290.14
2018-06-29T03:59:53.708Z,101281.52
2018-06-29T04:02:22.028Z,101279.45
2018-06-29T04:04:50.349Z,101272.76
2018-06-29T04:07:18.091Z,101275.07
2018-06-29T04:09:47.003Z,101269.71
2018-06-29T04:12:15.320Z,101266.86
2018-06-29T04:14:43.053Z,101269.95
2018-06-29T04:17:11.368Z,101273.30
2018-06-29T04:19:39.681Z,101277.33
2018-06-29T04:22:08.580Z,101271.24
2018-06-29T04:24:36.315Z,101269.39
2018-06-29T04:27:04.626Z,101268.84
2018-06-29T04:29:32.937Z,101259.32
2018-06-29T04:32:01.866Z,101262.67
2018-06-29T04:34:30.173Z,101254.62
2018-06-29T04:36:57.916Z,101257.98
2018-06-29T04:39:26.816Z,101266.86
2018-06-29T04:41:54.559Z,101264.55
2018-06-29T04:44:22.866Z,101257.19
2018-06-29T04:46:51.766Z,101261.66
2018-06-29T04:49:19.522Z,101259.16
2018-06-29T04:51:48.392Z,101263.59
2018-06-29T04:54:16.697Z,101265.25
2018-06-29T04:56:44.497Z,101256.22
2018-06-29T04:59:13.372Z,101265.19
2018-06-29T05:01:41.136Z,101248.89
2018-06-29T05:04:09.956Z,101241.45
2018-06-29T05:06:37.711Z,101245.59
2018-06-29T05:09:06.612Z,101242.02
2018-06-29T05:11:34.339Z,101244.27
2018-06-29T05:14:02.655Z,101243.66
2018-06-29T05:16:31.559Z,101236.64
2018-06-29T05:19:07.726Z,101232.01
2018-06-29T05:21:36.274Z,101232.14
2018-06-29T05:24:04.991Z,101232.95
2018-06-29T05:26:33.289Z,101232.81
2018-06-29T05:29:01.037Z,101244.63
2018-06-29T05:31:29.948Z,101234.17
2018-06-29T05:33:58.301Z,101229.97
2018-06-29T05:36:26.056Z,101241.82
2018-06-29T05:38:54.376Z,101227.91
2018-06-29T05:41:23.281Z,101229.63
2018-06-29T05:43:51.581Z,101235.07
2018-06-29T05:46:19.966Z,101230.05
2018-06-29T05:48:48.248Z,101228.45
2018-06-29T05:51:16.557Z,101221.39
2018-06-29T05:53:44.849Z,101211.26
2018-06-29T05:56:12.610Z,101212.28
2018-06-29T05:58:40.925Z,101216.61
2018-06-29T06:01:09.243Z,101220.17
2018-06-29T06:03:38.162Z,101223.10
2018-06-29T06:06:05.897Z,101224.28
2018-06-29T06:08:34.220Z,101227.36
2018-06-29T06:11:03.117Z,101236.20
2018-06-29T06:13:30.859Z,101236.41
2018-06-29T06:15:59.801Z,101242.04
2018-06-29T06:18:28.070Z,101240.87
2018-06-29T06:20:55.888Z,101230.59
2018-06-29T06:23:24.700Z,101241.45
2018-06-29T06:25:52.439Z,101240.86
2018-06-29T06:28:20.770Z,101236.53
2018-06-29T06:30:49.087Z,101233.95
2018-06-29T06:33:17.980Z,101229.83
2018-06-29T06:35:46.321Z,101232.73
2018-06-29T06:38:14.056Z,101231.91
2018-06-29T06:40:42.959Z,101238.31
2018-06-29T06:43:11.336Z,101237.23
2018-06-29T06:45:39.659Z,101240.16
2018-06-29T06:48:07.992Z,101237.29
2018-06-29T06:50:36.332Z,101241.43
2018-06-29T06:53:04.646Z,101243.21
2018-06-29T06:55:32.396Z,101240.97
2018-06-29T06:58:00.710Z,101254.39
2018-06-29T07:00:29.613Z,101264.77
2018-06-29T07:02:57.371Z,101272.97
2018-06-29T07:05:26.257Z,101277.17
2018-06-29T07:07:54.573Z,101274.75
2018-06-29T07:10:22.892Z,101283.70
2018-06-29T07:12:51.277Z,101286.32
2018-06-29T07:15:18.959Z,101293.60
2018-06-29T07:17:47.858Z,101290.28
2018-06-29T07:20:15.596Z,101295.63
2018-06-29T07:22:44.500Z,101294.58
2018-06-29T07:25:12.818Z,101299.45
2018-06-29T07:27:41.142Z,101307.23
2018-06-29T07:30:09.492Z,101315.91
2018-06-29T07:32:37.795Z,101318.41
2018-06-29T07:35:05.537Z,101324.75
2018-06-29T07:37:33.887Z,101330.22
2018-06-29T07:40:02.790Z,101335.43
2018-06-29T07:42:30.542Z,101337.48
2018-06-29T07:44:59.456Z,101344.32
2018-06-29T07:47:27.776Z,101344.42
2018-06-29T07:49:56.097Z,101353.72
2018-06-29T07:52:23.834Z,101358.48
2018-06-29T07:54:52.158Z,101360.09
2018-06-29T07:57:21.049Z,101361.31
2018-06-29T07:59:48.801Z,101367.94
2018-06-29T08:02:17.109Z,101374.91
2018-06-29T08:04:46.011Z,101379.20
2018-06-29T08:07:13.747Z,101383.64
2018-06-29T08:09:42.061Z,101391.70
2018-06-29T08:12:10.964Z,101392.95
2018-06-29T08:14:39.968Z,101398.17
2018-06-29T08:17:07.701Z,101396.19
2018-06-29T08:19:36.015Z,101401.14
2018-06-29T08:22:04.733Z,101397.48
2018-06-29T08:24:32.685Z,101403.92
2018-06-29T08:27:00.999Z,101407.89
2018-06-29T08:29:29.904Z,101412.21
2018-06-29T08:31:58.217Z,101417.56
2018-06-29T08:34:25.984Z,101421.95
2018-06-29T08:36:54.837Z,101417.45
2018-06-29T08:39:23.787Z,101420.34
2018-06-29T08:41:52.096Z,101421.63
2018-06-29T08:44:20.027Z,101426.71
2018-06-29T08:46:48.809Z,101430.66
2018-06-29T08:49:17.376Z,101434.84
2018-06-29T08:51:45.701Z,101438.64
2018-06-29T08:54:13.436Z,101438.81
2018-06-29T08:56:42.350Z,101451.46
2018-06-29T08:59:10.670Z,101448.38
2018-06-29T09:01:40.871Z,101452.62
2018-06-29T09:04:07.880Z,101448.79
2018-06-29T09:06:35.613Z,101453.81
2018-06-29T09:09:05.115Z,101458.66
2018-06-29T09:11:32.271Z,101452.69
2018-06-29T09:14:00.596Z,101452.84
2018-06-29T09:16:28.921Z,101456.94
2018-06-29T09:18:57.428Z,101457.95
2018-06-29T09:21:26.126Z,101459.73
2018-06-29T09:23:54.452Z,101464.02
2018-06-29T09:26:22.526Z,101462.48
2018-06-29T09:28:51.433Z,101466.89
2018-06-29T09:31:19.164Z,101466.33
2018-06-29T09:33:47.474Z,101470.75
2018-06-29T09:36:16.418Z,101476.36
2018-06-29T09:38:44.689Z,101468.57
2018-06-29T09:41:13.032Z,101479.27
2018-06-29T09:43:41.364Z,101485.02
2018-06-29T09:46:09.687Z,101485.89
2018-06-29T09:48:38.019Z,101485.91
2018-06-29T09:51:06.356Z,101491.04
2018-06-29T09:53:34.093Z,101488.47
2018-06-29T09:56:03.223Z,101493.58
2018-06-29T09:58:31.319Z,101490.99
2018-06-29T10:00:59.084Z,101491.69
2018-06-29T10:03:27.948Z,101493.17
2018-06-29T10:05:55.696Z,101498.22
2018-06-29T10:08:24.074Z,101492.88
2018-06-29T10:10:52.973Z,101493.59
2018-06-29T10:13:21.287Z,101494.53
2018-06-29T10:15:49.609Z,101503.65
2018-06-29T10:18:17.962Z,101504.25
2018-06-29T10:20:46.284Z,101509.20
2018-06-29T10:23:14.016Z,101510.02
2018-06-29T10:25:42.347Z,101511.98
2018-06-29T10:28:11.340Z,101512.54
2018-06-29T10:30:39.578Z,101513.59
2018-06-29T10:33:07.932Z,101510.84
2018-06-29T10:35:36.528Z,101512.74
2018-06-29T10:38:04.832Z,101523.14
2018-06-29T10:40:32.575Z,101523.24
2018-06-29T10:43:01.527Z,101517.76
2018-06-29T10:45:29.334Z,101524.34
2018-06-29T10:47:58.243Z,101522.66
2018-06-29T10:50:26.568Z,101521.73
2018-06-29T10:52:54.379Z,101519.26
2018-06-29T10:55:23.299Z,101524.89
2018-06-29T10:57:51.634Z,101530.09
2018-06-29T11:00:20.220Z,101528.14
2018-06-29T11:02:48.776Z,101533.28
2018-06-29T11:05:17.690Z,101535.90
2018-06-29T11:07:45.705Z,101545.30
2018-06-29T11:10:13.936Z,101538.11
2018-06-29T11:12:42.261Z,101545.39
2018-06-29T11:15:16.143Z,101546.02
2018-06-29T11:17:43.904Z,101549.69
2018-06-29T11:20:12.223Z,101552.05
2018-06-29T11:22:41.167Z,101559.06
2018-06-29T11:25:09.693Z,101559.50
2018-06-29T11:27:37.967Z,101558.38
2018-06-29T11:30:06.923Z,101563.15
2018-06-29T11:32:36.190Z,101564.83
2018-06-29T11:35:04.216Z,101566.41
2018-06-29T11:37:32.777Z,101562.44
2018-06-29T11:40:01.104Z,101560.31
2018-06-29T11:42:30.146Z,101561.80
2018-06-29T11:44:58.423Z,101566.22
2018-06-29T11:47:26.902Z,101563.00
2018-06-29T11:49:54.645Z,101564.54
2018-06-29T11:52:22.966Z,101569.20
2018-06-29T11:54:53.536Z,101566.06
2018-06-29T11:57:22.983Z,101573.97
2018-06-29T11:59:51.305Z,101570.38
2018-06-29T12:02:19.106Z,101576.76
2018-06-29T12:04:48.488Z,101575.82
2018-06-29T12:07:16.925Z,101582.03
2018-06-29T12:10:01.361Z,101580.55
2018-06-29T12:15:26.753Z,101581.63
2018-06-29T12:17:59.444Z,101588.61
2018-06-29T12:20:30.406Z,101589.66
2018-06-29T12:23:00.935Z,101587.57
2018-06-29T12:25:30.188Z,101594.23
2018-06-29T12:28:00.708Z,101600.69
2018-06-29T12:30:29.837Z,101602.63
2018-06-29T12:32:58.183Z,101593.95
2018-06-29T12:35:26.503Z,101602.06
2018-06-29T12:37:54.299Z,101595.66
2018-06-29T12:40:23.166Z,101596.02
2018-06-29T12:42:51.472Z,101600.98
2018-06-29T12:45:19.242Z,101606.09
2018-06-29T12:47:47.570Z,101601.33
2018-06-29T12:50:15.890Z,101599.32
2018-06-29T12:52:44.203Z,101604.85
2018-06-29T12:55:13.114Z,101607.53
2018-06-29T12:57:40.861Z,101611.06
2018-06-29T13:00:09.649Z,101606.88
2018-06-29T13:02:40.371Z,101611.28
2018-06-29T13:05:08.120Z,101610.57
2018-06-29T13:07:37.019Z,101605.58
2018-06-29T13:10:05.339Z,101603.42
2018-06-29T13:12:33.653Z,101607.58
2018-06-29T13:15:01.970Z,101608.12
2018-06-29T13:17:30.299Z,101608.25
2018-06-29T13:19:59.071Z,101610.88
2018-06-29T13:22:27.468Z,101608.72
2018-06-29T13:24:55.311Z,101610.14
2018-06-29T13:27:24.109Z,101602.67
2018-06-29T13:29:52.436Z,101615.20
2018-06-29T13:32:20.176Z,101609.61
2018-06-29T13:34:48.496Z,101614.06
2018-06-29T13:37:17.408Z,101610.88
2018-06-29T13:39:45.143Z,101609.05
2018-06-29T13:42:17.855Z,101609.95
2018-06-29T13:44:45.211Z,101602.89
2018-06-29T13:47:12.969Z,101601.80
2018-06-29T13:49:41.910Z,101609.22
2018-06-29T13:52:09.654Z,101611.05
2018-06-29T13:54:38.780Z,101610.66
2018-06-29T13:57:06.878Z,101607.45
2018-06-29T13:59:35.200Z,101604.86
2018-06-29T14:02:03.518Z,101600.65
2018-06-29T14:04:31.841Z,101604.63
2018-06-29T14:07:00.161Z,101602.87
2018-06-29T14:09:28.479Z,101586.09
2018-06-29T14:11:56.512Z,101600.14
2018-06-29T14:14:24.553Z,101589.13
2018-06-29T14:16:53.458Z,101591.92
2018-06-29T14:19:21.194Z,101594.23
2018-06-29T14:21:50.098Z,101594.09
2018-06-29T14:24:21.305Z,101590.13
2018-06-29T14:26:47.479Z,101588.66
2018-06-29T14:29:15.791Z,101600.45
2018-06-29T14:31:44.113Z,101599.81
2018-06-29T14:34:12.434Z,101614.29
2018-06-29T14:36:40.186Z,101609.41
2018-06-29T14:39:09.090Z,101603.78
2018-06-29T14:41:36.846Z,101605.14
2018-06-29T14:44:05.745Z,101606.78
2018-06-29T14:46:33.496Z,101600.52
2018-06-29T14:49:02.550Z,101602.87
2018-06-29T14:51:30.863Z,101595.68
2018-06-29T14:53:59.181Z,101591.91
2018-06-29T14:56:27.498Z,101595.31
2018-06-29T14:58:55.849Z,101597.80
2018-06-29T15:01:23.609Z,101604.55
2018-06-29T15:03:52.747Z,101599.41
2018-06-29T15:06:20.488Z,101598.34
2018-06-29T15:08:49.392Z,101597.20
2018-06-29T15:11:17.127Z,101597.29
2018-06-29T15:13:46.033Z,101589.20
2018-06-29T15:16:14.349Z,101596.66
2018-06-29T15:18:42.690Z,101595.53
2018-06-29T15:21:11.002Z,101599.67
2018-06-29T15:23:39.407Z,101600.45
2018-06-29T15:26:07.141Z,101607.16
2018-06-29T15:28:35.464Z,101599.45
2018-06-29T15:31:04.372Z,101600.21
2018-06-29T15:33:32.094Z,101599.13
2018-06-29T15:36:00.423Z,101597.72
2018-06-29T15:38:29.324Z,101601.67
2018-06-29T15:40:57.652Z,101611.27
2018-06-29T15:43:26.005Z,101602.14
2018-06-29T15:45:54.322Z,101603.00
2018-06-29T15:48:22.722Z,101618.09
2018-06-29T15:50:51.225Z,101622.19
2018-06-29T15:53:19.528Z,101619.50
2018-06-29T15:55:47.914Z,101620.25
2018-06-29T15:58:16.224Z,101617.05
2018-06-29T16:00:44.601Z,101614.44
2018-06-29T16:03:12.945Z,101609.81
2018-06-29T16:05:40.792Z,101604.43
2018-06-29T16:08:09.694Z,101614.33
2018-06-29T16:10:37.429Z,101613.41
2018-06-29T16:13:06.436Z,101615.53
2018-06-29T16:15:34.972Z,101619.75
2018-06-29T16:18:02.728Z,101617.63
2018-06-29T16:20:32.949Z,101615.88
2018-06-29T16:23:00.690Z,101612.83
2018-06-29T16:25:29.479Z,101616.41
2018-06-29T16:27:58.474Z,101613.85
2018-06-29T16:30:26.391Z,101616.50
2018-06-29T16:32:54.553Z,101614.93
2018-06-29T16:35:23.476Z,101607.69
2018-06-29T16:37:51.801Z,101614.33
2018-06-29T16:40:20.381Z,101611.94
2018-06-29T16:42:48.743Z,101610.00
2018-06-29T16:45:17.799Z,101618.11
2018-06-29T16:47:46.137Z,101597.19
2018-06-29T16:50:14.463Z,101615.47
2018-06-29T16:52:42.227Z,101609.91
2018-06-29T16:55:11.135Z,101612.44
2018-06-29T16:57:39.444Z,101610.92
2018-06-29T17:00:07.822Z,101612.30
2018-06-29T17:02:35.571Z,101622.23
2018-06-29T17:05:03.946Z,101626.91
2018-06-29T17:07:32.836Z,101629.45
2018-06-29T17:10:01.244Z,101623.78
2018-06-29T17:12:29.633Z,101624.04
2018-06-29T17:14:57.951Z,101621.30
2018-06-29T17:17:26.297Z,101625.59
2018-06-29T17:19:54.727Z,101624.16
2018-06-29T17:22:23.009Z,101621.22
2018-06-29T17:24:51.336Z,101622.02
2018-06-29T17:27:21.420Z,101622.09
2018-06-29T17:29:48.675Z,101619.11
2018-06-29T17:32:16.992Z,101622.66
2018-06-29T17:34:45.673Z,101624.55
2018-06-29T17:37:18.784Z,101623.03
2018-06-29T17:39:47.328Z,101625.19
2018-06-29T17:42:15.682Z,101625.27
2018-06-29T17:44:43.429Z,101620.99
2018-06-29T17:47:17.839Z,101622.78
2018-06-29T17:49:45.573Z,101629.28
2018-06-29T17:52:14.506Z,101619.77
2018-06-29T17:54:42.850Z,101621.98
2018-06-29T17:57:11.429Z,101617.51
2018-06-29T17:59:42.749Z,101630.56
2018-06-29T18:02:11.174Z,101625.55
2018-06-29T18:04:39.496Z,101624.50
2018-06-29T18:07:08.597Z,101627.75
2018-06-29T18:09:36.714Z,101626.41
2018-06-29T18:12:05.253Z,101622.03
2018-06-29T18:14:33.581Z,101625.99
2018-06-29T18:17:01.335Z,101624.26
2018-06-29T18:19:29.654Z,101622.97
2018-06-29T18:21:57.985Z,101622.05
2018-06-29T18:24:26.320Z,101621.66
2018-06-29T18:26:55.214Z,101627.02
2018-06-29T18:29:23.617Z,101635.05
2018-06-29T18:31:51.957Z,101632.98
2018-06-29T18:34:20.293Z,101635.91
2018-06-29T18:36:48.820Z,101640.46
2018-06-29T18:39:17.101Z,101646.40
2018-06-29T18:41:44.842Z,101644.67
2018-06-29T18:44:13.755Z,101645.19
2018-06-29T18:46:47.414Z,101647.44
2018-06-29T18:49:15.740Z,101655.52
2018-06-29T18:51:43.493Z,101651.99
2018-06-29T18:54:12.397Z,101653.78
2018-06-29T18:56:40.767Z,101656.29
2018-06-29T18:59:08.619Z,101652.08
2018-06-29T19:01:40.753Z,101653.02
2018-06-29T19:04:09.069Z,101661.45
2018-06-29T19:06:38.570Z,101661.22
2018-06-29T19:09:10.096Z,101660.36
2018-06-29T19:11:38.443Z,101663.17
2018-06-29T19:14:06.794Z,101666.38
2018-06-29T19:16:35.146Z,101663.52
2018-06-29T19:19:13.541Z,101660.55
2018-06-29T19:21:41.889Z,101660.16
2018-06-29T19:24:10.284Z,101659.67
2018-06-29T19:26:38.598Z,101668.02
2018-06-29T19:29:06.918Z,101663.75
2018-06-29T19:31:34.688Z,101672.06
2018-06-29T19:34:03.712Z,101666.44
2018-06-29T19:36:32.090Z,101669.43
2018-06-29T19:39:01.015Z,101675.41
2018-06-29T19:41:29.302Z,101674.14
2018-06-29T19:43:57.644Z,101676.34
2018-06-29T19:46:25.387Z,101675.48
2018-06-29T19:48:54.301Z,101672.40
2018-06-29T19:51:22.116Z,101674.37
2018-06-29T19:53:51.013Z,101677.96
2018-06-29T19:56:25.238Z,101671.91
2018-06-29T19:58:53.729Z,101675.63
2018-06-29T20:01:21.426Z,101674.33
2018-06-29T20:03:49.746Z,101673.23
2018-06-29T20:06:18.763Z,101677.24
2018-06-29T20:08:47.113Z,101677.92
2018-06-29T20:11:15.982Z,101678.02
2018-06-29T20:13:44.280Z,101669.42
2018-06-29T20:16:12.615Z,101671.00
2018-06-29T20:18:40.952Z,101671.56
2018-06-29T20:21:08.695Z,101674.88
2018-06-29T20:23:37.618Z,101668.84
2018-06-29T20:26:06.120Z,101668.95
2018-06-29T20:28:33.850Z,101670.97
2018-06-29T20:31:02.759Z,101668.16
2018-06-29T20:33:31.123Z,101666.09
2018-06-29T20:35:59.495Z,101667.26
2018-06-29T20:38:27.824Z,101672.77
2018-06-29T20:40:56.181Z,101673.73
2018-06-29T20:43:23.995Z,101670.45
2018-06-29T20:45:52.898Z,101669.47
2018-06-29T20:48:21.228Z,101669.29
2018-06-29T20:50:49.537Z,101672.62
2018-06-29T20:53:17.859Z,101676.56
2018-06-29T20:55:46.668Z,101671.59
2018-06-29T20:58:16.953Z,101672.34
2018-06-29T21:00:45.060Z,101672.34
2018-06-29T21:03:15.528Z,101680.56
2018-06-29T21:05:43.853Z,101676.02
2018-06-29T21:08:12.204Z,101677.47
2018-06-29T21:10:40.581Z,101675.96
2018-06-29T21:13:09.013Z,101680.66
2018-06-29T21:15:40.076Z,101674.18
2018-06-29T21:18:09.598Z,101678.28
2018-06-29T21:20:37.545Z,101677.09
2018-06-29T21:23:06.471Z,101673.83
2018-06-29T21:25:34.792Z,101673.91
2018-06-29T21:28:03.121Z,101668.50
2018-06-29T21:30:31.446Z,101664.44
2018-06-29T21:32:59.179Z,101673.77
2018-06-29T21:35:28.078Z,101672.91
2018-06-29T21:37:55.814Z,101674.06
2018-06-29T21:40:24.711Z,101675.70
2018-06-29T21:42:52.529Z,101676.72
2018-06-29T21:45:21.356Z,101670.70
2018-06-29T21:47:49.095Z,101668.88
2018-06-29T21:50:17.992Z,101670.91
2018-06-29T21:52:45.768Z,101668.38
2018-06-29T21:55:14.632Z,101671.08
2018-06-29T21:57:42.956Z,101668.64
2018-06-29T22:00:10.705Z,101664.48
2018-06-29T22:02:39.637Z,101665.98
2018-06-29T22:05:07.957Z,101670.45
2018-06-29T22:07:36.278Z,101673.05
2018-06-29T22:10:04.602Z,101672.47
2018-06-29T22:12:32.917Z,101675.36
2018-06-29T22:15:00.690Z,101667.19
2018-06-29T22:17:29.011Z,101670.69
2018-06-29T22:19:57.438Z,101667.90
2018-06-29T22:22:26.349Z,101671.76
2018-06-29T22:24:54.650Z,101662.11
2018-06-29T22:27:22.405Z,101659.56
2018-06-29T22:29:51.299Z,101661.44
2018-06-29T22:32:19.726Z,101670.21
2018-06-29T22:34:48.030Z,101665.44
2018-06-29T22:37:15.787Z,101661.50
2018-06-29T22:39:44.107Z,101659.00
2018-06-29T22:42:13.012Z,101663.41
2018-06-29T22:44:41.325Z,101671.75
2018-06-29T22:47:09.660Z,101667.35
2018-06-29T22:49:38.131Z,101666.88
2018-06-29T22:52:05.873Z,101665.81
2018-06-29T22:54:34.456Z,101666.42
2018-06-29T22:57:02.781Z,101671.52
2018-06-29T22:59:31.100Z,101669.42
2018-06-29T23:02:00.186Z,101672.31
2018-06-29T23:04:28.413Z,101675.77
2018-06-29T23:06:56.150Z,101666.69
2018-06-29T23:09:25.053Z,101667.48
2018-06-29T23:11:53.374Z,101668.23
2018-06-29T23:14:22.482Z,101669.59
2018-06-29T23:16:51.031Z,101667.80
2018-06-29T23:19:18.534Z,101671.84
2018-06-29T23:21:46.847Z,101662.66
2018-06-29T23:24:15.750Z,101665.58
2018-06-29T23:26:49.304Z,101668.11
2018-06-29T23:29:17.416Z,101665.66
2018-06-29T23:31:46.703Z,101664.77
2018-06-29T23:34:15.539Z,101670.70
2018-06-29T23:36:43.275Z,101671.84
2018-06-29T23:39:11.860Z,101670.67
2018-06-29T23:41:40.561Z,101669.89
2018-06-29T23:44:08.883Z,101669.39
2018-06-29T23:46:37.208Z,101669.30
2018-06-29T23:49:05.526Z,101669.73
2018-06-29T23:51:33.841Z,101664.08
2018-06-29T23:54:01.596Z,101664.20
2018-06-29T23:56:30.042Z,101664.39
2018-06-29T23:58:58.934Z,101660.77
